createdAt,value
2023-04-19T00:00:27.829Z,8.00
2023-04-19T00:03:07.058Z,6.75
2023-04-19T00:05:45.636Z,8.50
2023-04-19T00:08:23.491Z,9.32
2023-04-19T00:11:01.204Z,7.07
2023-04-19T00:13:43.936Z,7.32
2023-04-19T00:16:22.272Z,9.98
2023-04-19T00:18:58.193Z,6.50
2023-04-19T00:21:39.758Z,5.97
2023-04-19T00:24:18.045Z,7.00
2023-04-19T00:27:03.848Z,8.85
2023-04-19T00:29:47.165Z,8.10
2023-04-19T00:32:23.703Z,8.55
2023-04-19T00:35:01.581Z,9.00
2023-04-19T00:37:45.120Z,9.25
2023-04-19T00:40:27.958Z,8.82
2023-04-19T00:43:05.892Z,12.23
2023-04-19T00:45:38.474Z,8.73
2023-04-19T00:48:22.740Z,10.40
2023-04-19T00:50:55.602Z,5.20
2023-04-19T00:53:41.085Z,8.40
2023-04-19T00:56:09.675Z,9.95
2023-04-19T00:58:45.680Z,8.55
2023-04-19T01:01:25.429Z,7.32
2023-04-19T01:04:03.566Z,7.97
2023-04-19T01:06:43.675Z,5.60
2023-04-19T01:09:19.242Z,7.78
2023-04-19T01:12:03.581Z,10.65
2023-04-19T01:14:39.634Z,6.53
2023-04-19T01:17:14.722Z,8.25
2023-04-19T01:20:01.039Z,6.03
2023-04-19T01:22:40.786Z,7.95
2023-04-19T01:25:21.665Z,7.05
2023-04-19T01:28:00.033Z,8.43
2023-04-19T01:30:36.002Z,8.77
2023-04-19T01:33:12.073Z,6.13
2023-04-19T01:35:50.634Z,5.20
2023-04-19T01:38:33.384Z,9.60
2023-04-19T01:41:09.124Z,9.07
2023-04-19T01:43:41.970Z,7.22
2023-04-19T01:46:28.476Z,7.43
2023-04-19T01:49:03.673Z,10.25
2023-04-19T01:51:44.520Z,10.40
2023-04-19T01:54:28.363Z,7.22
2023-04-19T01:57:01.240Z,5.35
2023-04-19T01:59:40.592Z,5.95
2023-04-19T02:02:15.793Z,7.47
2023-04-19T02:04:44.220Z,4.00
2023-04-19T02:07:22.098Z,6.35
2023-04-19T02:10:06.148Z,4.90
2023-04-19T02:12:43.745Z,6.18
2023-04-19T02:15:24.467Z,5.93
2023-04-19T02:18:07.701Z,7.22
2023-04-19T02:20:46.945Z,9.63
2023-04-19T02:23:21.902Z,9.45
2023-04-19T02:25:56.259Z,8.50
2023-04-19T02:28:38.277Z,8.75
2023-04-19T02:31:16.069Z,7.72
2023-04-19T02:33:49.399Z,6.80
2023-04-19T02:36:25.039Z,7.65
2023-04-19T02:38:54.295Z,7.72
2023-04-19T02:41:29.122Z,9.35
2023-04-19T02:44:06.071Z,5.85
2023-04-19T02:46:43.225Z,7.68
2023-04-19T02:49:21.520Z,5.53
2023-04-19T02:52:00.620Z,6.93
2023-04-19T02:54:30.519Z,7.60
2023-04-19T02:57:11.746Z,11.38
2023-04-19T02:59:54.654Z,7.40
2023-04-19T03:02:40.964Z,6.78
2023-04-19T03:05:19.087Z,8.02
2023-04-19T03:08:01.206Z,7.60
2023-04-19T03:10:42.489Z,9.65
2023-04-19T03:13:27.102Z,8.18
2023-04-19T03:15:59.877Z,10.00
2023-04-19T03:18:48.066Z,7.80
2023-04-19T03:21:29.215Z,19.55
2023-04-19T03:24:11.518Z,12.70
2023-04-19T03:27:05.569Z,9.95
2023-04-19T03:29:41.023Z,9.07
2023-04-19T03:32:22.113Z,10.68
2023-04-19T03:35:01.128Z,8.52
2023-04-19T03:37:39.768Z,8.05
2023-04-19T03:40:12.821Z,9.98
2023-04-19T03:42:47.579Z,8.93
2023-04-19T03:45:42.370Z,7.50
2023-04-19T03:48:20.727Z,7.57
2023-04-19T03:51:02.060Z,9.85
2023-04-19T03:53:45.939Z,7.93
2023-04-19T03:56:24.355Z,8.77
2023-04-19T03:59:06.480Z,12.70
2023-04-19T04:01:48.586Z,10.07
2023-04-19T04:04:27.374Z,8.60
2023-04-19T04:07:03.406Z,10.52
2023-04-19T04:09:46.947Z,12.07
2023-04-19T04:12:24.168Z,14.50
2023-04-19T04:14:59.464Z,8.13
2023-04-19T04:17:40.125Z,10.73
2023-04-19T04:20:21.148Z,9.85
2023-04-19T04:22:58.645Z,12.48
2023-04-19T04:25:39.592Z,10.52
2023-04-19T04:28:26.820Z,9.40
2023-04-19T04:31:06.714Z,16.38
2023-04-19T04:33:42.946Z,24.10
2023-04-19T04:36:18.825Z,19.45
2023-04-19T04:41:31.663Z,29.92
2023-04-19T04:44:12.899Z,30.98
2023-04-19T04:47:03.285Z,30.00
2023-04-19T04:49:41.129Z,16.00
2023-04-19T04:52:18.602Z,20.90
2023-04-19T04:55:03.738Z,10.20
2023-04-19T04:57:45.732Z,14.63
2023-04-19T05:00:24.631Z,9.73
2023-04-19T05:03:12.192Z,11.65
2023-04-19T05:05:50.730Z,9.43
2023-04-19T05:08:23.568Z,12.70
2023-04-19T05:11:03.707Z,8.25
2023-04-19T05:13:47.153Z,14.73
2023-04-19T05:16:26.710Z,9.63
2023-04-19T05:19:04.925Z,12.27
2023-04-19T05:21:44.965Z,14.70
2023-04-19T05:24:24.626Z,15.43
2023-04-19T05:26:59.873Z,11.35
2023-04-19T05:29:41.479Z,9.63
2023-04-19T05:32:13.605Z,10.07
2023-04-19T05:35:01.498Z,10.48
2023-04-19T05:37:36.720Z,7.97
2023-04-19T05:40:15.617Z,11.25
2023-04-19T05:42:59.886Z,17.05
2023-04-19T05:45:43.116Z,9.07
2023-04-19T05:48:24.118Z,9.75
2023-04-19T05:51:24.849Z,9.73
2023-04-19T05:54:14.634Z,9.73
2023-04-19T05:56:53.465Z,11.13
2023-04-19T05:59:34.157Z,9.15
2023-04-19T06:02:16.755Z,9.82
2023-04-19T06:04:49.663Z,14.70
2023-04-19T06:07:31.835Z,15.18
2023-04-19T06:10:15.708Z,9.68
2023-04-19T06:12:45.371Z,13.15
2023-04-19T06:15:25.976Z,11.45
2023-04-19T06:18:08.984Z,12.77
2023-04-19T06:20:47.746Z,12.90
2023-04-19T06:23:27.148Z,7.32
2023-04-19T06:26:10.296Z,14.70
2023-04-19T06:28:46.632Z,10.45
2023-04-19T06:31:27.530Z,17.75
2023-04-19T06:34:11.382Z,11.35
2023-04-19T06:36:52.611Z,11.60
2023-04-19T06:39:37.236Z,12.27
2023-04-19T06:42:20.983Z,10.50
2023-04-19T06:45:01.508Z,8.18
2023-04-19T06:47:48.685Z,13.45
2023-04-19T06:50:21.554Z,9.27
2023-04-19T06:52:56.977Z,8.73
2023-04-19T06:55:43.592Z,7.53
2023-04-19T06:58:27.246Z,6.72
2023-04-19T07:01:05.450Z,7.43
2023-04-19T07:03:41.982Z,9.50
2023-04-19T07:06:20.546Z,6.03
2023-04-19T07:08:53.635Z,9.05
2023-04-19T07:11:29.584Z,11.35
2023-04-19T07:14:10.755Z,12.27
2023-04-19T07:16:51.636Z,6.25
2023-04-19T07:19:33.563Z,11.77
2023-04-19T07:22:15.245Z,6.45
2023-04-19T07:24:59.064Z,7.75
2023-04-19T07:27:37.265Z,5.40
2023-04-19T07:30:18.088Z,6.00
2023-04-19T07:32:59.473Z,6.72
2023-04-19T07:35:35.525Z,8.27
2023-04-19T07:38:17.383Z,7.70
2023-04-19T07:40:58.313Z,8.82
2023-04-19T07:43:39.270Z,8.75
2023-04-19T07:46:19.246Z,8.80
2023-04-19T07:49:03.052Z,11.65
2023-04-19T07:51:35.553Z,15.35
2023-04-19T07:54:16.418Z,8.43
2023-04-19T07:56:59.165Z,8.73
2023-04-19T07:59:42.737Z,9.50
2023-04-19T08:02:19.293Z,6.35
2023-04-19T08:04:49.997Z,4.95
2023-04-19T08:07:28.468Z,5.25
2023-04-19T08:10:12.130Z,5.38
2023-04-19T08:13:05.052Z,8.95
2023-04-19T08:18:25.471Z,7.43
2023-04-19T08:21:12.206Z,15.27
2023-04-19T08:23:48.262Z,5.20
2023-04-19T08:26:24.186Z,7.43
2023-04-19T08:29:15.323Z,5.13
2023-04-19T08:31:53.698Z,4.65
2023-04-19T08:34:45.488Z,10.23
2023-04-19T08:37:27.038Z,5.63
2023-04-19T08:40:08.727Z,6.97
2023-04-19T08:42:49.884Z,5.93
2023-04-19T08:45:29.364Z,5.18
2023-04-19T08:48:10.418Z,7.97
2023-04-19T08:51:00.607Z,6.63
2023-04-19T08:53:46.618Z,10.57
2023-04-19T08:56:34.791Z,4.32
2023-04-19T08:59:20.499Z,6.40
2023-04-19T09:02:06.725Z,4.80
2023-04-19T09:04:53.754Z,4.05
2023-04-19T09:07:32.806Z,4.78
2023-04-19T09:10:26.039Z,4.70
2023-04-19T09:13:13.850Z,3.25
2023-04-19T09:15:54.666Z,5.85
2023-04-19T09:18:42.551Z,4.10
2023-04-19T09:21:40.969Z,4.35
2023-04-19T09:24:16.780Z,5.80
2023-04-19T09:26:54.859Z,15.07
2023-04-19T09:29:33.290Z,4.65
2023-04-19T09:32:14.362Z,10.13
2023-04-19T09:35:05.663Z,4.28
2023-04-19T09:38:02.128Z,6.28
2023-04-19T09:40:41.138Z,4.18
2023-04-19T09:43:45.205Z,4.22
2023-04-19T09:46:36.282Z,5.53
2023-04-19T09:49:33.734Z,6.20
2023-04-19T09:52:16.597Z,7.85
2023-04-19T09:54:53.227Z,6.97
2023-04-19T09:57:31.235Z,5.80
2023-04-19T10:00:15.787Z,7.22
2023-04-19T10:02:54.812Z,6.28
2023-04-19T10:05:41.781Z,8.23
2023-04-19T10:08:17.641Z,4.93
2023-04-19T10:10:56.915Z,8.57
2023-04-19T10:13:30.357Z,7.13
2023-04-19T10:16:15.524Z,7.90
2023-04-19T10:18:55.335Z,7.72
2023-04-19T10:21:39.578Z,5.22
2023-04-19T10:24:20.565Z,4.90
2023-04-19T10:27:13.274Z,11.40
2023-04-19T10:30:07.387Z,5.22
2023-04-19T10:32:43.549Z,8.27
2023-04-19T10:35:34.970Z,6.57
2023-04-19T10:38:16.334Z,4.25
2023-04-19T10:41:00.736Z,6.57
2023-04-19T10:43:42.425Z,7.75
2023-04-19T10:46:30.029Z,7.35
2023-04-19T10:49:13.747Z,6.82
2023-04-19T10:51:55.067Z,3.83
2023-04-19T10:54:36.538Z,4.57
2023-04-19T10:57:16.216Z,4.63
2023-04-19T11:00:31.595Z,3.67
2023-04-19T11:03:36.932Z,7.65
2023-04-19T11:07:01.671Z,4.18
2023-04-19T11:09:48.420Z,5.03
2023-04-19T11:12:27.772Z,5.43
2023-04-19T11:15:11.964Z,8.77
2023-04-19T11:17:42.820Z,8.40
2023-04-19T11:20:26.656Z,5.68
2023-04-19T11:23:04.342Z,10.48
2023-04-19T11:25:42.572Z,10.15
2023-04-19T11:28:21.741Z,7.78
2023-04-19T11:30:59.884Z,9.52
2023-04-19T11:33:50.223Z,7.80
2023-04-19T11:36:29.702Z,11.30
2023-04-19T11:39:07.676Z,9.27
2023-04-19T11:41:47.501Z,13.68
2023-04-19T11:44:34.397Z,14.35
2023-04-19T11:47:15.174Z,8.02
2023-04-19T11:50:25.285Z,8.32
2023-04-19T11:52:57.645Z,7.97
2023-04-19T11:55:44.832Z,12.63
2023-04-19T11:58:55.270Z,10.38
2023-04-19T12:01:40.076Z,10.75
2023-04-19T12:04:23.694Z,9.80
2023-04-19T12:07:01.764Z,10.43
2023-04-19T12:09:38.982Z,7.78
2023-04-19T12:12:34.966Z,11.90
2023-04-19T12:15:15.629Z,10.27
2023-04-19T12:18:12.865Z,8.75
2023-04-19T12:20:59.498Z,8.38
2023-04-19T12:23:45.112Z,8.30
2023-04-19T12:26:31.408Z,7.45
2023-04-19T12:29:12.822Z,9.43
2023-04-19T12:31:58.913Z,10.18
2023-04-19T12:34:36.734Z,10.77
2023-04-19T12:37:12.169Z,13.25
2023-04-19T12:39:50.513Z,9.95
2023-04-19T12:42:29.012Z,10.30
2023-04-19T12:45:06.691Z,10.57
2023-04-19T12:47:50.223Z,15.18
2023-04-19T12:50:34.538Z,10.27
2023-04-19T12:53:09.715Z,13.07
2023-04-19T12:55:49.810Z,8.35
2023-04-19T12:58:36.064Z,8.80
2023-04-19T13:01:12.773Z,8.30
2023-04-19T13:03:50.365Z,6.25
2023-04-19T13:06:28.591Z,6.38
2023-04-19T13:11:58.667Z,8.57
2023-04-19T13:14:36.350Z,8.50
2023-04-19T13:17:13.069Z,9.25
2023-04-19T13:19:53.648Z,8.43
2023-04-19T13:22:32.541Z,8.02
2023-04-19T13:25:10.764Z,7.55
2023-04-19T13:27:47.605Z,7.55
2023-04-19T13:30:26.058Z,12.02
2023-04-19T13:33:01.585Z,13.05
2023-04-19T13:35:45.570Z,12.77
2023-04-19T13:40:57.090Z,13.63
2023-04-19T13:43:35.067Z,15.13
2023-04-19T13:46:12.465Z,9.18
2023-04-19T13:48:56.581Z,10.20
2023-04-19T13:51:46.249Z,9.20
2023-04-19T13:54:25.487Z,10.40
2023-04-19T13:57:06.292Z,15.45
2023-04-19T13:59:43.770Z,8.20
2023-04-19T14:02:21.566Z,10.40
2023-04-19T14:04:59.125Z,9.70
2023-04-19T14:07:34.582Z,9.00
2023-04-19T14:10:12.277Z,11.13
2023-04-19T14:12:58.558Z,12.35
2023-04-19T14:15:33.224Z,8.70
2023-04-19T14:18:17.008Z,8.13
2023-04-19T14:20:55.208Z,7.43
2023-04-19T14:23:28.008Z,10.57
2023-04-19T14:26:03.390Z,14.85
2023-04-19T14:28:38.549Z,15.63
2023-04-19T14:31:21.750Z,17.17
2023-04-19T14:34:00.045Z,21.40
2023-04-19T14:36:44.069Z,14.93
2023-04-19T14:39:22.590Z,17.75
2023-04-19T14:42:00.720Z,23.02
2023-04-19T14:44:43.958Z,17.02
2023-04-19T14:47:19.253Z,22.33
2023-04-19T14:50:00.601Z,19.52
2023-04-19T14:52:41.603Z,18.52
2023-04-19T14:55:28.577Z,21.20
2023-04-19T14:58:10.352Z,22.17
2023-04-19T15:00:45.753Z,18.45
2023-04-19T15:03:27.378Z,18.88
2023-04-19T15:06:00.937Z,19.35
2023-04-19T15:08:38.567Z,19.20
2023-04-19T15:11:10.623Z,18.60
2023-04-19T15:13:46.575Z,18.67
2023-04-19T15:16:29.450Z,17.17
2023-04-19T15:19:07.685Z,15.77
2023-04-19T15:21:48.741Z,17.08
2023-04-19T15:24:21.412Z,17.70
2023-04-19T15:27:04.751Z,17.73
2023-04-19T15:29:41.428Z,29.40
2023-04-19T15:32:30.564Z,15.65
2023-04-19T15:35:06.144Z,15.32
2023-04-19T15:37:46.887Z,17.08
2023-04-19T15:40:50.226Z,17.20
2023-04-19T15:43:42.581Z,15.68
2023-04-19T15:46:16.919Z,14.95
2023-04-19T15:48:58.143Z,18.10
2023-04-19T15:51:39.166Z,13.00
2023-04-19T15:54:25.142Z,12.63
2023-04-19T15:57:09.585Z,10.45
2023-04-19T15:59:44.947Z,9.95
2023-04-19T16:02:33.603Z,10.98
2023-04-19T16:05:17.800Z,13.10
2023-04-19T16:08:07.312Z,10.45
2023-04-19T16:10:45.638Z,10.50
2023-04-19T16:13:25.865Z,18.15
2023-04-19T16:16:01.544Z,10.30
2023-04-19T16:18:37.047Z,9.13
2023-04-19T16:21:12.234Z,11.38
2023-04-19T16:23:53.749Z,11.35
2023-04-19T16:26:31.389Z,8.18
2023-04-19T16:29:09.557Z,8.60
2023-04-19T16:31:52.247Z,11.07
2023-04-19T16:34:30.648Z,8.35
2023-04-19T16:37:06.564Z,8.82
2023-04-19T16:39:33.465Z,10.15
2023-04-19T16:42:10.554Z,10.43
2023-04-19T16:44:56.151Z,9.05
2023-04-19T16:47:37.614Z,7.88
2023-04-19T16:50:23.356Z,10.73
2023-04-19T16:53:04.143Z,11.23
2023-04-19T16:55:41.796Z,13.15
2023-04-19T16:58:18.910Z,16.42
2023-04-19T17:01:02.816Z,14.32
2023-04-19T17:03:44.542Z,12.00
2023-04-19T17:06:25.279Z,11.98
2023-04-19T17:09:01.416Z,12.95
2023-04-19T17:11:42.613Z,16.17
2023-04-19T17:14:17.973Z,12.27
2023-04-19T17:17:05.362Z,13.85
2023-04-19T17:19:40.480Z,13.23
2023-04-19T17:22:18.636Z,13.63
2023-04-19T17:24:51.477Z,12.00
2023-04-19T17:30:12.652Z,7.93
2023-04-19T17:32:56.444Z,10.27
2023-04-19T17:35:39.704Z,11.02
2023-04-19T17:38:17.457Z,12.35
2023-04-19T17:41:03.626Z,9.40
2023-04-19T17:43:38.850Z,10.85
2023-04-19T17:46:19.638Z,13.52
2023-04-19T17:49:00.252Z,12.55
2023-04-19T17:51:42.335Z,13.25
2023-04-19T17:54:16.024Z,12.82
2023-04-19T17:56:46.296Z,15.13
2023-04-19T17:59:23.910Z,12.15
2023-04-19T18:01:59.980Z,14.30
2023-04-19T18:04:51.258Z,12.00
2023-04-19T18:07:34.040Z,12.60
2023-04-19T18:10:09.551Z,13.77
2023-04-19T18:13:13.441Z,11.18
2023-04-19T18:15:49.612Z,13.68
2023-04-19T18:18:31.829Z,12.30
2023-04-19T18:21:19.123Z,12.10
2023-04-19T18:23:57.410Z,14.10
2023-04-19T18:26:42.568Z,14.93
2023-04-19T18:29:22.040Z,14.13
2023-04-19T18:31:55.395Z,13.85
2023-04-19T18:34:42.750Z,14.55
2023-04-19T18:37:22.847Z,13.57
2023-04-19T18:40:07.460Z,18.27
2023-04-19T18:42:39.200Z,20.67
2023-04-19T18:45:17.428Z,20.13
2023-04-19T18:48:03.758Z,21.13
2023-04-19T18:50:40.621Z,19.50
2023-04-19T18:53:24.468Z,20.60
2023-04-19T18:56:00.549Z,19.15
2023-04-19T18:58:37.602Z,20.00
2023-04-19T19:01:18.602Z,24.55
2023-04-19T19:04:21.178Z,21.13
2023-04-19T19:06:58.354Z,21.73
2023-04-19T19:09:55.246Z,22.20
2023-04-19T19:12:37.672Z,23.65
2023-04-19T19:15:14.555Z,22.30
2023-04-19T19:17:50.576Z,19.55
2023-04-19T19:20:31.542Z,22.65
2023-04-19T19:23:07.198Z,20.88
2023-04-19T19:25:47.857Z,20.95
2023-04-19T19:28:22.589Z,27.27
2023-04-19T19:30:58.001Z,20.83
2023-04-19T19:33:40.815Z,22.15
2023-04-19T19:36:13.981Z,18.35
2023-04-19T19:39:01.091Z,23.10
2023-04-19T19:42:04.313Z,24.27
2023-04-19T19:44:29.542Z,22.98
2023-04-19T19:47:13.299Z,26.80
2023-04-19T19:50:32.030Z,27.00
2023-04-19T19:52:51.018Z,24.00
2023-04-19T19:55:24.711Z,29.83
2023-04-19T20:00:47.964Z,28.13
2023-04-19T20:03:36.879Z,30.48
2023-04-19T20:08:51.446Z,26.00
2023-04-19T20:11:32.111Z,30.00
2023-04-19T20:14:10.995Z,27.40
2023-04-19T20:16:46.421Z,27.80
2023-04-19T20:19:25.045Z,30.60
2023-04-19T20:22:03.343Z,28.58
2023-04-19T20:24:45.836Z,25.77
2023-04-19T20:27:22.048Z,25.70
2023-04-19T20:30:00.931Z,29.27
2023-04-19T20:32:36.679Z,25.58
2023-04-19T20:35:14.586Z,30.38
2023-04-19T20:38:02.680Z,27.55
2023-04-19T20:40:44.276Z,27.95
2023-04-19T20:43:25.617Z,30.75
2023-04-19T20:46:02.002Z,25.73
2023-04-19T20:48:36.847Z,25.98
2023-04-19T20:51:20.683Z,24.65
2023-04-19T20:53:55.981Z,20.65
2023-04-19T20:56:35.566Z,22.63
2023-04-19T20:59:13.730Z,21.10
2023-04-19T21:01:56.977Z,20.75
2023-04-19T21:04:34.918Z,24.73
2023-04-19T21:07:19.565Z,25.83
2023-04-19T21:09:55.890Z,23.38
2023-04-19T21:12:31.255Z,25.05
2023-04-19T21:15:24.909Z,22.05
2023-04-19T21:18:06.630Z,21.35
2023-04-19T21:20:42.651Z,24.73
2023-04-19T21:23:28.189Z,23.90
2023-04-19T21:26:04.637Z,24.08
2023-04-19T21:28:43.972Z,32.35
2023-04-19T21:31:27.168Z,28.77
2023-04-19T21:34:03.559Z,31.27
2023-04-19T21:36:44.550Z,28.52
2023-04-19T21:39:14.138Z,31.52
2023-04-19T21:41:52.566Z,34.92
2023-04-19T21:44:30.556Z,41.53
2023-04-19T21:47:08.212Z,46.63
2023-04-19T21:49:38.685Z,40.58
2023-04-19T21:52:14.087Z,40.42
2023-04-19T21:54:52.886Z,39.20
2023-04-19T21:57:31.727Z,35.65
2023-04-19T22:00:05.341Z,36.47
2023-04-19T22:02:42.046Z,35.13
2023-04-19T22:05:20.809Z,34.83
2023-04-19T22:07:59.030Z,38.80
2023-04-19T22:10:33.660Z,38.50
2023-04-19T22:13:14.542Z,42.47
2023-04-19T22:15:47.535Z,40.58
2023-04-19T22:18:25.871Z,37.50
2023-04-19T22:21:00.501Z,38.78
2023-04-19T22:23:43.665Z,39.30
2023-04-19T22:26:21.427Z,43.65
2023-04-19T22:29:01.757Z,44.60
2023-04-19T22:31:45.500Z,42.42
2023-04-19T22:34:23.439Z,39.97
2023-04-19T22:37:07.576Z,40.67
2023-04-19T22:39:47.943Z,44.85
2023-04-19T22:42:18.632Z,45.85
2023-04-19T22:44:54.536Z,46.83
2023-04-19T22:47:33.730Z,42.67
2023-04-19T22:50:14.387Z,45.20
2023-04-19T22:52:55.566Z,45.15
2023-04-19T22:55:39.572Z,42.45
2023-04-19T22:58:19.881Z,39.92
2023-04-19T23:00:57.547Z,43.20
2023-04-19T23:03:35.991Z,45.10
2023-04-19T23:06:14.770Z,47.33
2023-04-19T23:08:53.557Z,43.30
2023-04-19T23:11:35.549Z,40.40
2023-04-19T23:14:13.597Z,41.72
2023-04-19T23:16:57.230Z,42.83
2023-04-19T23:19:33.464Z,52.75
2023-04-19T23:22:17.734Z,57.65
2023-04-19T23:25:03.612Z,51.33
2023-04-19T23:27:49.838Z,49.38
2023-04-19T23:30:22.768Z,46.15
2023-04-19T23:33:01.851Z,49.95
2023-04-19T23:35:42.954Z,59.95
2023-04-19T23:38:20.916Z,56.53
2023-04-19T23:40:58.594Z,55.90
2023-04-19T23:43:46.513Z,54.55
2023-04-19T23:46:24.662Z,50.40
2023-04-19T23:49:07.508Z,52.08
2023-04-19T23:51:45.448Z,55.65
2023-04-19T23:54:28.194Z,54.83
2023-04-19T23:56:58.826Z,53.00
2023-04-19T23:59:33.275Z,58.08
